McConnell Air Force Base, KS (67221)

4:11 AM CST on February 11, 2016 (GMT -0600)
Towne Parc | | Change Station
CLOSE
Current Station
Personal Weather Station
Location: Wichita, KS
Elevation: 1411 ft
Nearby Weather Stations

Elev 1411 ft 37.64 °N, 97.23 °W | Updated 12 seconds ago

Clear
Clear
36.3 °F
Feels Like 36 °F
N
1.1
Wind Variable Wind from NNW
Gusts 2.5 mph

Today
High -- | Low -- °F
--% Chance of Precip.
Yesterday
High -- | Low -- °F
Precip. -- in
Pressure 30.11 in
Visibility 10.0 miles
Clouds Clear
Windchill 36 °F
Dew Point 3 °F
Humidity 24%
Rainfall 0.00 in
Snow Depth Not available.
7:23 AM 6:03 PM
Waxing Crescent, 11% visible
METAR KIAB 110958Z AUTO 02008KT 10SM CLR 02/M02 A3010 RMK AO2 SLP196 T00211020
Pressure 30.11 in
Visibility 10.0 miles
Clouds Clear
Windchill 36 °F
Dew Point 3 °F
Humidity 24%
Rainfall 0.00 in
Snow Depth Not available.
7:23 AM 6:03 PM
Waxing Crescent, 11% visible
METAR KIAB 110958Z AUTO 02008KT 10SM CLR 02/M02 A3010 RMK AO2 SLP196 T00211020

10-Day Weather Forecast

Almanac

Astronomy

Feb. 11, 2016 Rise Set
Actual Time
Civil Twilight
Nautical Twilight
Astronomical Twilight
Moon
Length of Visible Light
Length of Day
Tomorrow will be .
, % of the Moon is Illuminated

Today's Extremes

State Highs State Lows

Community

WunderPhotos

Upload Photos

1,892,030 photos uploaded!

WunderBlog® & News

Nearby

Air Quality

  Air Quality AQ Index Pollutant
Not available.

Snow Depth

Station Depth Elevation

Earthquake Activity

City Distance Mag. Time & Date
Minimum magnitude displayed is 2.5.

Coastal Water Temperatures

Place Temperature

Stations

Nearby Weather Stations

Station Location Temp. Windchill Dew Point Humidity Wind Precip. Elev Updated Type
                   

Watches & Warnings

There are currently no watches in effect.